sensor_id;sensor_type;location;lat;lon;timestamp;pressure;altitude;pressure_sealevel;temperature;humidity
48555;BME280;34336;48.270;16.716;2022-11-02T00:02:14;76879.31;;;18.16;98.31
48555;BME280;34336;48.270;16.716;2022-11-02T00:04:41;76879.31;;;18.16;98.38
48555;BME280;34336;48.270;16.716;2022-11-02T00:07:08;76887.03;;;18.16;98.31
48555;BME280;34336;48.270;16.716;2022-11-02T00:09:35;76885.09;;;18.16;98.21
48555;BME280;34336;48.270;16.716;2022-11-02T00:12:01;76887.03;;;18.16;98.52
48555;BME280;34336;48.270;16.716;2022-11-02T00:14:28;76898.59;;;18.16;98.67
48555;BME280;34336;48.270;16.716;2022-11-02T00:16:55;76894.75;;;18.16;98.43
48555;BME280;34336;48.270;16.716;2022-11-02T00:19:21;76896.66;;;18.16;98.54
48555;BME280;34336;48.270;16.716;2022-11-02T00:21:48;76904.38;;;18.16;98.55
48555;BME280;34336;48.270;16.716;2022-11-02T00:24:14;76902.44;;;18.16;98.75
48555;BME280;34336;48.270;16.716;2022-11-02T00:26:41;76906.31;;;18.16;98.67
48555;BME280;34336;48.270;16.716;2022-11-02T00:29:07;76910.16;;;18.16;98.72
48555;BME280;34336;48.270;16.716;2022-11-02T00:31:34;76910.16;;;18.16;98.55
48555;BME280;34336;48.270;16.716;2022-11-02T00:34:01;76912.09;;;18.16;98.68
48555;BME280;34336;48.270;16.716;2022-11-02T00:36:27;76910.16;;;18.16;98.69
48555;BME280;34336;48.270;16.716;2022-11-02T00:38:54;76912.09;;;18.16;98.85
48555;BME280;34336;48.270;16.716;2022-11-02T00:41:20;76908.22;;;18.16;98.85
48555;BME280;34336;48.270;16.716;2022-11-02T00:43:47;76910.16;;;18.16;99.04
48555;BME280;34336;48.270;16.716;2022-11-02T00:46:14;76912.09;;;18.16;98.91
48555;BME280;34336;48.270;16.716;2022-11-02T00:48:40;76915.94;;;18.16;98.93
48555;BME280;34336;48.270;16.716;2022-11-02T00:51:08;76914.00;;;18.16;98.87
48555;BME280;34336;48.270;16.716;2022-11-02T00:53:34;76917.88;;;18.16;98.86
48555;BME280;34336;48.270;16.716;2022-11-02T00:56:01;76919.78;;;18.16;98.94
48555;BME280;34336;48.270;16.716;2022-11-02T00:58:27;76921.72;;;18.16;98.90
48555;BME280;34336;48.270;16.716;2022-11-02T01:00:54;76925.56;;;18.16;98.89
48555;BME280;34336;48.270;16.716;2022-11-02T01:03:21;76921.72;;;18.16;99.06
48555;BME280;34336;48.270;16.716;2022-11-02T01:05:48;76925.56;;;18.16;98.82
48555;BME280;34336;48.270;16.716;2022-11-02T01:08:15;76921.72;;;18.16;99.02
48555;BME280;34336;48.270;16.716;2022-11-02T01:10:41;76929.44;;;18.16;99.03
48555;BME280;34336;48.270;16.716;2022-11-02T01:13:14;76921.72;;;18.16;98.79
48555;BME280;34336;48.270;16.716;2022-11-02T01:15:41;76917.88;;;18.16;98.84
48555;BME280;34336;48.270;16.716;2022-11-02T01:18:08;76929.44;;;18.16;98.79
48555;BME280;34336;48.270;16.716;2022-11-02T01:20:34;76929.44;;;18.16;98.87
48555;BME280;34336;48.270;16.716;2022-11-02T01:23:01;76929.44;;;18.16;98.62
48555;BME280;34336;48.270;16.716;2022-11-02T01:25:28;76941.00;;;18.16;98.75
48555;BME280;34336;48.270;16.716;2022-11-02T01:27:54;76946.78;;;18.16;98.63
48555;BME280;34336;48.270;16.716;2022-11-02T01:30:21;76952.56;;;18.16;98.75
48555;BME280;34336;48.270;16.716;2022-11-02T01:32:47;76948.69;;;18.16;98.66
48555;BME280;34336;48.270;16.716;2022-11-02T01:35:15;76948.69;;;18.16;98.74
48555;BME280;34336;48.270;16.716;2022-11-02T01:37:42;76952.56;;;18.16;98.70
48555;BME280;34336;48.270;16.716;2022-11-02T01:40:08;76956.41;;;18.16;98.69
48555;BME280;34336;48.270;16.716;2022-11-02T01:42:35;76960.25;;;18.16;98.69
48555;BME280;34336;48.270;16.716;2022-11-02T01:45:02;76966.03;;;18.16;98.51
48555;BME280;34336;48.270;16.716;2022-11-02T01:47:36;76967.97;;;18.16;98.71
48555;BME280;34336;48.270;16.716;2022-11-02T01:50:07;76966.03;;;18.16;98.79
48555;BME280;34336;48.270;16.716;2022-11-02T01:52:36;76966.03;;;18.16;98.66
48555;BME280;34336;48.270;16.716;2022-11-02T01:55:13;76967.97;;;18.16;98.70
48555;BME280;34336;48.270;16.716;2022-11-02T01:57:46;76979.53;;;18.16;98.85
48555;BME280;34336;48.270;16.716;2022-11-02T02:00:15;76991.09;;;18.16;98.72
48555;BME280;34336;48.270;16.716;2022-11-02T02:03:05;76983.38;;;18.16;98.51
48555;BME280;34336;48.270;16.716;2022-11-02T02:05:31;76987.25;;;18.16;98.71
48555;BME280;34336;48.270;16.716;2022-11-02T02:07:59;76998.81;;;18.16;98.65
48555;BME280;34336;48.270;16.716;2022-11-02T02:10:30;77002.66;;;18.16;98.81
48555;BME280;34336;48.270;16.716;2022-11-02T02:12:56;76998.81;;;18.16;98.48
48555;BME280;34336;48.270;16.716;2022-11-02T02:15:24;77000.75;;;18.16;98.57
48555;BME280;34336;48.270;16.716;2022-11-02T02:18:05;77018.09;;;18.16;98.77
48555;BME280;34336;48.270;16.716;2022-11-02T02:30:38;77037.34;;;18.16;98.82
48555;BME280;34336;48.270;16.716;2022-11-02T02:33:08;77048.91;;;18.16;98.92
48555;BME280;34336;48.270;16.716;2022-11-02T02:35:47;77052.78;;;18.16;99.05
48555;BME280;34336;48.270;16.716;2022-11-02T02:38:20;77052.78;;;18.16;98.72
48555;BME280;34336;48.270;16.716;2022-11-02T02:40:51;77047.00;;;18.16;98.72
48555;BME280;34336;48.270;16.716;2022-11-02T02:43:36;77041.22;;;18.16;99.28
48555;BME280;34336;48.270;16.716;2022-11-02T02:46:12;77050.84;;;18.16;98.98
48555;BME280;34336;48.270;16.716;2022-11-02T02:48:41;77048.91;;;18.16;99.08
48555;BME280;34336;48.270;16.716;2022-11-02T02:51:11;77058.56;;;18.16;99.13
48555;BME280;34336;48.270;16.716;2022-11-02T02:53:41;77060.47;;;18.16;99.06
48555;BME280;34336;48.270;16.716;2022-11-02T02:56:09;77060.47;;;18.16;99.50
48555;BME280;34336;48.270;16.716;2022-11-02T02:58:38;77056.63;;;18.16;99.34
48555;BME280;34336;48.270;16.716;2022-11-02T03:01:10;77052.78;;;18.16;99.56
48555;BME280;34336;48.270;16.716;2022-11-02T03:03:38;77043.13;;;18.16;99.67
48555;BME280;34336;48.270;16.716;2022-11-02T03:06:12;77047.00;;;18.16;99.82
48555;BME280;34336;48.270;16.716;2022-11-02T03:08:46;77047.00;;;18.16;99.79
48555;BME280;34336;48.270;16.716;2022-11-02T03:11:14;77045.06;;;18.16;99.71
48555;BME280;34336;48.270;16.716;2022-11-02T03:14:00;77031.56;;;18.16;100.00
48555;BME280;34336;48.270;16.716;2022-11-02T03:19:10;77018.09;;;18.16;100.00
48555;BME280;34336;48.270;16.716;2022-11-02T03:21:42;77014.22;;;18.16;100.00
48555;BME280;34336;48.270;16.716;2022-11-02T03:24:29;77018.09;;;18.16;100.00
48555;BME280;34336;48.270;16.716;2022-11-02T03:27:11;77010.38;;;18.16;100.00
48555;BME280;34336;48.270;16.716;2022-11-02T03:29:52;77016.16;;;18.16;100.00
48555;BME280;34336;48.270;16.716;2022-11-02T03:32:22;77014.22;;;18.16;100.00
48555;BME280;34336;48.270;16.716;2022-11-02T03:34:54;77012.31;;;18.16;100.00
48555;BME280;34336;48.270;16.716;2022-11-02T03:37:28;77018.09;;;18.16;100.00
48555;BME280;34336;48.270;16.716;2022-11-02T03:42:35;77008.44;;;18.16;100.00
48555;BME280;34336;48.270;16.716;2022-11-02T03:45:06;77002.66;;;18.16;100.00
48555;BME280;34336;48.270;16.716;2022-11-02T03:47:35;77002.66;;;18.16;100.00
48555;BME280;34336;48.270;16.716;2022-11-02T03:50:07;77000.75;;;18.16;100.00
48555;BME280;34336;48.270;16.716;2022-11-02T03:52:36;77000.75;;;18.16;100.00
48555;BME280;34336;48.270;16.716;2022-11-02T03:57:36;76987.25;;;18.16;100.00
48555;BME280;34336;48.270;16.716;2022-11-02T04:00:10;76991.09;;;18.16;100.00
48555;BME280;34336;48.270;16.716;2022-11-02T04:02:47;76983.38;;;18.16;100.00
48555;BME280;34336;48.270;16.716;2022-11-02T04:05:16;76983.38;;;18.16;100.00
48555;BME280;34336;48.270;16.716;2022-11-02T04:07:44;76973.75;;;18.16;100.00
48555;BME280;34336;48.270;16.716;2022-11-02T04:10:31;76967.97;;;18.16;100.00
48555;BME280;34336;48.270;16.716;2022-11-02T04:12:58;76967.97;;;18.16;100.00
48555;BME280;34336;48.270;16.716;2022-11-02T04:15:44;76960.25;;;18.16;100.00
48555;BME280;34336;48.270;16.716;2022-11-02T04:18:11;76956.41;;;18.16;100.00
48555;BME280;34336;48.270;16.716;2022-11-02T04:20:57;76958.34;;;18.16;100.00
48555;BME280;34336;48.270;16.716;2022-11-02T04:23:24;76956.41;;;18.16;100.00
48555;BME280;34336;48.270;16.716;2022-11-02T04:26:09;76952.56;;;18.16;100.00
48555;BME280;34336;48.270;16.716;2022-11-02T04:28:41;76944.84;;;18.16;100.00
48555;BME280;34336;48.270;16.716;2022-11-02T04:31:07;76946.78;;;18.16;100.00
48555;BME280;34336;48.270;16.716;2022-11-02T04:33:37;76950.63;;;18.16;100.00
48555;BME280;34336;48.270;16.716;2022-11-02T04:36:09;76948.69;;;18.16;100.00
48555;BME280;34336;48.270;16.716;2022-11-02T04:38:37;76952.56;;;18.16;100.00
48555;BME280;34336;48.270;16.716;2022-11-02T04:41:36;76950.63;;;18.16;100.00
48555;BME280;34336;48.270;16.716;2022-11-02T04:44:29;76946.78;;;18.16;100.00
48555;BME280;34336;48.270;16.716;2022-11-02T04:47:07;76950.63;;;18.16;100.00
48555;BME280;34336;48.270;16.716;2022-11-02T04:49:34;76948.69;;;18.16;100.00
48555;BME280;34336;48.270;16.716;2022-11-02T04:52:03;76952.56;;;18.16;100.00
48555;BME280;34336;48.270;16.716;2022-11-02T04:54:33;76956.41;;;18.16;100.00
48555;BME280;34336;48.270;16.716;2022-11-02T04:57:02;76958.34;;;18.16;100.00
48555;BME280;34336;48.270;16.716;2022-11-02T04:59:30;76958.34;;;18.16;100.00
48555;BME280;34336;48.270;16.716;2022-11-02T05:01:57;76958.34;;;18.16;100.00
48555;BME280;34336;48.270;16.716;2022-11-02T05:04:24;76960.25;;;18.16;100.00
48555;BME280;34336;48.270;16.716;2022-11-02T05:06:51;76964.13;;;18.16;100.00
48555;BME280;34336;48.270;16.716;2022-11-02T05:09:22;76964.13;;;18.16;100.00
48555;BME280;34336;48.270;16.716;2022-11-02T05:11:50;76975.69;;;18.16;100.00
48555;BME280;34336;48.270;16.716;2022-11-02T05:14:16;76977.59;;;18.16;100.00
48555;BME280;34336;48.270;16.716;2022-11-02T05:16:43;76975.69;;;18.16;100.00
48555;BME280;34336;48.270;16.716;2022-11-02T05:19:11;76975.69;;;18.16;100.00
48555;BME280;34336;48.270;16.716;2022-11-02T05:21:38;76983.38;;;18.16;100.00
48555;BME280;34336;48.270;16.716;2022-11-02T05:24:06;76989.16;;;18.16;100.00
48555;BME280;34336;48.270;16.716;2022-11-02T05:26:33;76998.81;;;18.16;100.00
48555;BME280;34336;48.270;16.716;2022-11-02T05:29:00;77006.53;;;18.16;100.00
48555;BME280;34336;48.270;16.716;2022-11-02T05:31:28;77006.53;;;18.16;100.00
48555;BME280;34336;48.270;16.716;2022-11-02T05:33:55;77012.31;;;18.16;100.00
48555;BME280;34336;48.270;16.716;2022-11-02T05:36:22;77021.94;;;18.16;100.00
48555;BME280;34336;48.270;16.716;2022-11-02T05:38:54;77025.78;;;18.16;100.00
48555;BME280;34336;48.270;16.716;2022-11-02T05:41:21;77029.66;;;18.16;100.00
48555;BME280;34336;48.270;16.716;2022-11-02T05:43:50;77025.78;;;18.16;100.00
48555;BME280;34336;48.270;16.716;2022-11-02T05:46:19;77029.66;;;18.16;100.00
48555;BME280;34336;48.270;16.716;2022-11-02T05:48:46;77035.44;;;18.16;100.00
48555;BME280;34336;48.270;16.716;2022-11-02T05:51:12;77043.13;;;18.16;100.00
48555;BME280;34336;48.270;16.716;2022-11-02T05:53:40;77048.91;;;18.16;100.00
48555;BME280;34336;48.270;16.716;2022-11-02T05:56:08;77060.47;;;18.16;100.00
48555;BME280;34336;48.270;16.716;2022-11-02T05:58:35;77070.13;;;18.16;100.00
48555;BME280;34336;48.270;16.716;2022-11-02T06:01:03;77079.75;;;18.16;100.00
48555;BME280;34336;48.270;16.716;2022-11-02T06:03:30;77089.38;;;18.16;100.00
48555;BME280;34336;48.270;16.716;2022-11-02T06:06:00;77095.19;;;18.16;100.00
48555;BME280;34336;48.270;16.716;2022-11-02T06:08:29;77093.25;;;18.16;100.00
48555;BME280;34336;48.270;16.716;2022-11-02T06:11:06;77106.75;;;18.16;100.00
48555;BME280;34336;48.270;16.716;2022-11-02T06:13:33;77108.66;;;18.16;100.00
48555;BME280;34336;48.270;16.716;2022-11-02T06:16:00;77106.75;;;18.16;100.00
48555;BME280;34336;48.270;16.716;2022-11-02T06:18:27;77126.00;;;18.16;100.00
48555;BME280;34336;48.270;16.716;2022-11-02T06:20:57;77120.22;;;18.16;100.00
48555;BME280;34336;48.270;16.716;2022-11-02T06:23:24;77120.22;;;18.16;100.00
48555;BME280;34336;48.270;16.716;2022-11-02T06:25:51;77116.38;;;18.16;100.00
48555;BME280;34336;48.270;16.716;2022-11-02T06:28:18;77114.44;;;18.16;100.00
48555;BME280;34336;48.270;16.716;2022-11-02T06:30:45;77093.25;;;18.16;100.00
48555;BME280;34336;48.270;16.716;2022-11-02T06:33:12;77075.91;;;18.16;100.00
48555;BME280;34336;48.270;16.716;2022-11-02T06:35:41;77087.47;;;18.16;99.70
48555;BME280;34336;48.270;16.716;2022-11-02T06:38:09;77052.78;;;18.16;99.59
48555;BME280;34336;48.270;16.716;2022-11-02T06:40:36;77047.00;;;18.16;99.39
48555;BME280;34336;48.270;16.716;2022-11-02T06:43:03;77033.50;;;18.16;98.69
48555;BME280;34336;48.270;16.716;2022-11-02T06:45:42;77006.53;;;18.16;97.50
48555;BME280;34336;48.270;16.716;2022-11-02T06:48:09;76975.69;;;18.16;95.85
48555;BME280;34336;48.270;16.716;2022-11-02T06:50:35;76944.84;;;18.16;94.24
48555;BME280;34336;48.270;16.716;2022-11-02T06:53:02;76898.59;;;18.16;92.30
48555;BME280;34336;48.270;16.716;2022-11-02T06:55:29;76871.63;;;18.16;89.98
48555;BME280;34336;48.270;16.716;2022-11-02T06:57:56;76848.47;;;18.16;88.05
48555;BME280;34336;48.270;16.716;2022-11-02T07:00:22;76827.28;;;18.16;86.41
48555;BME280;34336;48.270;16.716;2022-11-02T07:03:05;76790.66;;;18.16;85.48
48555;BME280;34336;48.270;16.716;2022-11-02T07:05:33;76790.66;;;18.16;83.67
48555;BME280;34336;48.270;16.716;2022-11-02T07:08:00;76779.09;;;18.16;83.92
48555;BME280;34336;48.270;16.716;2022-11-02T07:10:27;76725.16;;;18.16;83.52
48555;BME280;34336;48.270;16.716;2022-11-02T07:12:55;76713.59;;;18.16;83.39
48555;BME280;34336;48.270;16.716;2022-11-02T07:15:23;76686.59;;;18.16;82.31
48555;BME280;34336;48.270;16.716;2022-11-02T07:17:50;76682.75;;;18.16;81.58
48555;BME280;34336;48.270;16.716;2022-11-02T07:20:17;76659.63;;;18.16;81.69
48555;BME280;34336;48.270;16.716;2022-11-02T07:22:51;76636.50;;;18.16;81.54
48555;BME280;34336;48.270;16.716;2022-11-02T07:25:17;76636.50;;;18.16;79.46
48555;BME280;34336;48.270;16.716;2022-11-02T07:27:44;76617.22;;;18.16;79.72
48555;BME280;34336;48.270;16.716;2022-11-02T07:30:11;76545.94;;;18.16;77.81
48555;BME280;34336;48.270;16.716;2022-11-02T07:32:38;76509.31;;;18.16;76.77
48555;BME280;34336;48.270;16.716;2022-11-02T07:35:06;76447.66;;;18.16;74.34
48555;BME280;34336;48.270;16.716;2022-11-02T07:37:33;76432.25;;;18.16;73.67
48555;BME280;34336;48.270;16.716;2022-11-02T07:40:00;76428.38;;;18.16;71.84
48555;BME280;34336;48.270;16.716;2022-11-02T07:42:26;76455.38;;;18.16;72.70
48555;BME280;34336;48.270;16.716;2022-11-02T07:44:55;76478.50;;;18.16;74.63
48555;BME280;34336;48.270;16.716;2022-11-02T07:47:23;76474.63;;;18.16;75.83
48555;BME280;34336;48.270;16.716;2022-11-02T07:49:49;76441.88;;;18.16;76.88
48555;BME280;34336;48.270;16.716;2022-11-02T07:52:16;76412.97;;;18.16;76.39
48555;BME280;34336;48.270;16.716;2022-11-02T07:54:42;76345.53;;;18.16;72.20
48555;BME280;34336;48.270;16.716;2022-11-02T07:57:10;76297.34;;;18.16;69.53
48555;BME280;34336;48.270;16.716;2022-11-02T07:59:36;76305.06;;;18.16;69.90
48555;BME280;34336;48.270;16.716;2022-11-02T08:02:03;76366.72;;;18.16;72.62
48555;BME280;34336;48.270;16.716;2022-11-02T08:04:30;76347.47;;;18.16;71.33
48555;BME280;34336;48.270;16.716;2022-11-02T08:06:57;76305.06;;;18.16;71.44
48555;BME280;34336;48.270;16.716;2022-11-02T08:09:23;76328.19;;;18.16;72.71
48555;BME280;34336;48.270;16.716;2022-11-02T08:11:50;76308.91;;;18.16;72.41
48555;BME280;34336;48.270;16.716;2022-11-02T08:14:17;76262.66;;;18.16;69.23
48555;BME280;34336;48.270;16.716;2022-11-02T08:16:43;76216.44;;;18.16;67.25
48555;BME280;34336;48.270;16.716;2022-11-02T08:19:10;76174.03;;;18.16;67.07
48555;BME280;34336;48.270;16.716;2022-11-02T08:21:37;76204.88;;;18.16;66.62
48555;BME280;34336;48.270;16.716;2022-11-02T08:24:03;76162.47;;;18.16;66.63
48555;BME280;34336;48.270;16.716;2022-11-02T08:26:30;76191.38;;;18.16;69.20
48555;BME280;34336;48.270;16.716;2022-11-02T08:28:57;76174.03;;;18.16;67.72
48555;BME280;34336;48.270;16.716;2022-11-02T08:31:24;76135.50;;;18.16;66.36
48555;BME280;34336;48.270;16.716;2022-11-02T08:33:50;76208.72;;;18.16;68.23
48555;BME280;34336;48.270;16.716;2022-11-02T08:36:19;76228.00;;;18.16;69.09
48555;BME280;34336;48.270;16.716;2022-11-02T08:38:46;76266.53;;;18.16;68.53
48555;BME280;34336;48.270;16.716;2022-11-02T08:41:12;76247.25;;;18.16;69.73
48555;BME280;34336;48.270;16.716;2022-11-02T08:43:40;76235.69;;;18.16;70.79
48555;BME280;34336;48.270;16.716;2022-11-02T08:46:06;76268.44;;;18.16;69.40
48555;BME280;34336;48.270;16.716;2022-11-02T08:48:40;76220.28;;;18.16;69.79
48555;BME280;34336;48.270;16.716;2022-11-02T08:51:07;76177.91;;;18.16;68.59
48555;BME280;34336;48.270;16.716;2022-11-02T08:53:34;76139.34;;;18.16;68.99
48555;BME280;34336;48.270;16.716;2022-11-02T08:56:01;76093.13;;;18.16;67.60
48555;BME280;34336;48.270;16.716;2022-11-02T08:58:27;76087.34;;;18.16;66.67
48555;BME280;34336;48.270;16.716;2022-11-02T09:00:54;76108.53;;;18.16;65.80
48555;BME280;34336;48.270;16.716;2022-11-02T09:03:20;76112.38;;;18.16;65.29
48555;BME280;34336;48.270;16.716;2022-11-02T09:05:56;76100.81;;;18.16;66.92
48555;BME280;34336;48.270;16.716;2022-11-02T09:08:24;76125.88;;;18.16;69.18
48555;BME280;34336;48.270;16.716;2022-11-02T09:10:51;76131.66;;;18.16;68.64
48555;BME280;34336;48.270;16.716;2022-11-02T09:13:19;76133.56;;;18.16;68.17
48555;BME280;34336;48.270;16.716;2022-11-02T09:15:48;76073.84;;;18.16;68.13
48555;BME280;34336;48.270;16.716;2022-11-02T09:18:15;76043.03;;;18.16;67.68
48555;BME280;34336;48.270;16.716;2022-11-02T09:20:41;76035.31;;;18.16;65.51
48555;BME280;34336;48.270;16.716;2022-11-02T09:23:11;76037.25;;;18.16;65.12
48555;BME280;34336;48.270;16.716;2022-11-02T09:25:37;76006.41;;;18.16;64.96
48555;BME280;34336;48.270;16.716;2022-11-02T09:28:07;75977.50;;;18.16;65.24
48555;BME280;34336;48.270;16.716;2022-11-02T09:30:36;75958.25;;;18.16;64.88
48555;BME280;34336;48.270;16.716;2022-11-02T09:33:06;75969.81;;;18.16;65.39
48555;BME280;34336;48.270;16.716;2022-11-02T09:35:39;75969.81;;;18.16;64.30
48555;BME280;34336;48.270;16.716;2022-11-02T09:38:08;75977.50;;;18.16;63.50
48555;BME280;34336;48.270;16.716;2022-11-02T09:40:43;76004.47;;;18.16;64.54
48555;BME280;34336;48.270;16.716;2022-11-02T09:45:51;76035.31;;;18.16;65.59
48555;BME280;34336;48.270;16.716;2022-11-02T09:48:30;75967.88;;;18.16;65.20
48555;BME280;34336;48.270;16.716;2022-11-02T09:51:12;76027.59;;;18.16;63.50
48555;BME280;34336;48.270;16.716;2022-11-02T09:56:22;76041.09;;;18.16;65.88
48555;BME280;34336;48.270;16.716;2022-11-02T09:58:56;76012.19;;;18.16;67.01
48555;BME280;34336;48.270;16.716;2022-11-02T10:01:31;75950.53;;;18.16;63.96
48555;BME280;34336;48.270;16.716;2022-11-02T10:06:35;75946.69;;;18.16;65.07
48555;BME280;34336;48.270;16.716;2022-11-02T10:11:44;75865.75;;;18.16;63.69
48555;BME280;34336;48.270;16.716;2022-11-02T10:17:00;75859.97;;;18.16;61.50
48555;BME280;34336;48.270;16.716;2022-11-02T10:19:30;75833.00;;;18.16;60.18
48555;BME280;34336;48.270;16.716;2022-11-02T10:22:03;75831.09;;;18.16;59.73
48555;BME280;34336;48.270;16.716;2022-11-02T10:27:00;75854.22;;;18.16;61.30
48555;BME280;34336;48.270;16.716;2022-11-02T10:30:28;75840.72;;;18.16;61.02
48555;BME280;34336;48.270;16.716;2022-11-02T10:32:24;75861.91;;;18.16;61.31
48555;BME280;34336;48.270;16.716;2022-11-02T10:34:51;75833.00;;;18.16;61.74
48555;BME280;34336;48.270;16.716;2022-11-02T10:45:43;75736.69;;;18.16;58.75
48555;BME280;34336;48.270;16.716;2022-11-02T10:53:25;75773.28;;;18.16;59.34
48555;BME280;34336;48.270;16.716;2022-11-02T10:58:33;75746.31;;;18.16;59.75
48555;BME280;34336;48.270;16.716;2022-11-02T11:01:09;75709.72;;;18.16;59.52
48555;BME280;34336;48.270;16.716;2022-11-02T11:06:22;75707.78;;;18.16;58.78
48555;BME280;34336;48.270;16.716;2022-11-02T11:08:50;75692.38;;;18.16;58.54
48555;BME280;34336;48.270;16.716;2022-11-02T11:11:23;75673.09;;;18.16;57.14
48555;BME280;34336;48.270;16.716;2022-11-02T11:13:55;75661.56;;;18.16;57.21
48555;BME280;34336;48.270;16.716;2022-11-02T11:16:53;75744.38;;;18.16;55.18
48555;BME280;34336;48.270;16.716;2022-11-02T11:22:02;75715.50;;;18.16;54.19
48555;BME280;34336;48.270;16.716;2022-11-02T11:24:30;75761.72;;;18.16;54.54
48555;BME280;34336;48.270;16.716;2022-11-02T11:27:01;75730.91;;;18.16;53.89
48555;BME280;34336;48.270;16.716;2022-11-02T11:29:31;75746.31;;;18.16;53.36
48555;BME280;34336;48.270;16.716;2022-11-02T11:31:58;75763.66;;;18.16;53.23
48555;BME280;34336;48.270;16.716;2022-11-02T11:34:30;75761.72;;;18.16;54.10
48555;BME280;34336;48.270;16.716;2022-11-02T11:37:06;75769.44;;;18.16;53.60
48555;BME280;34336;48.270;16.716;2022-11-02T11:39:34;75754.03;;;18.16;53.26
48555;BME280;34336;48.270;16.716;2022-11-02T11:42:01;75738.63;;;18.16;53.29
48555;BME280;34336;48.270;16.716;2022-11-02T11:44:28;75763.66;;;18.16;52.70
48555;BME280;34336;48.270;16.716;2022-11-02T11:46:56;75781.00;;;18.16;52.53
48555;BME280;34336;48.270;16.716;2022-11-02T11:52:10;75727.06;;;18.16;52.23
48555;BME280;34336;48.270;16.716;2022-11-02T11:54:40;75742.47;;;18.16;52.12
48555;BME280;34336;48.270;16.716;2022-11-02T11:57:21;75723.19;;;18.16;52.12
48555;BME280;34336;48.270;16.716;2022-11-02T11:59:49;75738.63;;;18.16;51.67
48555;BME280;34336;48.270;16.716;2022-11-02T12:02:21;75719.34;;;18.16;51.34
48555;BME280;34336;48.270;16.716;2022-11-02T12:04:49;75717.41;;;18.16;50.85
48555;BME280;34336;48.270;16.716;2022-11-02T12:20:05;75715.50;;;18.16;51.49
48555;BME280;34336;48.270;16.716;2022-11-02T12:25:14;75715.50;;;18.16;50.85
48555;BME280;34336;48.270;16.716;2022-11-02T12:30:29;75746.31;;;18.16;51.36
48555;BME280;34336;48.270;16.716;2022-11-02T12:33:12;75757.88;;;18.16;51.59
48555;BME280;34336;48.270;16.716;2022-11-02T12:49:17;75752.09;;;18.16;51.30
48555;BME280;34336;48.270;16.716;2022-11-02T12:54:09;75784.84;;;18.16;50.99
48555;BME280;34336;48.270;16.716;2022-11-02T12:56:46;75784.84;;;18.16;51.23
48555;BME280;34336;48.270;16.716;2022-11-02T12:59:16;75800.25;;;18.16;50.68
48555;BME280;34336;48.270;16.716;2022-11-02T13:01:45;75792.56;;;18.16;51.37
48555;BME280;34336;48.270;16.716;2022-11-02T13:06:43;75800.25;;;18.16;51.69
48555;BME280;34336;48.270;16.716;2022-11-02T13:09:25;75811.81;;;18.16;51.72
48555;BME280;34336;48.270;16.716;2022-11-02T13:12:15;75827.22;;;18.16;51.65
48555;BME280;34336;48.270;16.716;2022-11-02T13:14:45;75831.09;;;18.16;51.87
48555;BME280;34336;48.270;16.716;2022-11-02T13:17:20;75844.56;;;18.16;52.19
48555;BME280;34336;48.270;16.716;2022-11-02T13:19:49;75823.38;;;18.16;52.20
48555;BME280;34336;48.270;16.716;2022-11-02T13:22:17;75827.22;;;18.16;52.27
48555;BME280;34336;48.270;16.716;2022-11-02T13:24:53;75831.09;;;18.16;51.59
48555;BME280;34336;48.270;16.716;2022-11-02T13:27:36;75821.44;;;18.16;51.48
48555;BME280;34336;48.270;16.716;2022-11-02T13:30:12;75806.03;;;18.16;50.80
48555;BME280;34336;48.270;16.716;2022-11-02T13:32:41;75807.97;;;18.16;50.91
48555;BME280;34336;48.270;16.716;2022-11-02T13:35:19;75792.56;;;18.16;50.58
48555;BME280;34336;48.270;16.716;2022-11-02T13:37:54;75804.13;;;18.16;50.62
48555;BME280;34336;48.270;16.716;2022-11-02T13:40:24;75781.00;;;18.16;51.10
48555;BME280;34336;48.270;16.716;2022-11-02T13:42:57;75800.25;;;18.16;50.67
48555;BME280;34336;48.270;16.716;2022-11-02T13:50:45;75831.09;;;18.16;50.88
48555;BME280;34336;48.270;16.716;2022-11-02T13:53:17;75829.16;;;18.16;50.67
48555;BME280;34336;48.270;16.716;2022-11-02T13:55:49;75827.22;;;18.16;50.61
48555;BME280;34336;48.270;16.716;2022-11-02T13:58:22;75827.22;;;18.16;50.69
48555;BME280;34336;48.270;16.716;2022-11-02T14:00:50;75834.94;;;18.16;51.04
48555;BME280;34336;48.270;16.716;2022-11-02T14:03:23;75859.97;;;18.16;50.52
48555;BME280;34336;48.270;16.716;2022-11-02T14:08:21;75865.75;;;18.16;51.07
48555;BME280;34336;48.270;16.716;2022-11-02T14:11:05;75879.25;;;18.16;51.66
48555;BME280;34336;48.270;16.716;2022-11-02T14:19:23;75927.41;;;18.16;52.07
48555;BME280;34336;48.270;16.716;2022-11-02T14:29:47;75977.50;;;18.16;51.58
48555;BME280;34336;48.270;16.716;2022-11-02T14:34:52;75989.06;;;18.16;51.59
48555;BME280;34336;48.270;16.716;2022-11-02T14:42:56;76027.59;;;18.16;51.25
48555;BME280;34336;48.270;16.716;2022-11-02T14:48:02;76041.09;;;18.16;50.75
48555;BME280;34336;48.270;16.716;2022-11-02T14:50:30;76052.66;;;18.16;50.70
48555;BME280;34336;48.270;16.716;2022-11-02T14:53:02;76070.00;;;18.16;51.15
48555;BME280;34336;48.270;16.716;2022-11-02T14:55:32;76077.69;;;18.16;50.91
48555;BME280;34336;48.270;16.716;2022-11-02T14:58:18;76077.69;;;18.16;50.78
48555;BME280;34336;48.270;16.716;2022-11-02T15:06:24;76120.09;;;18.16;51.86
48555;BME280;34336;48.270;16.716;2022-11-02T15:08:51;76139.34;;;18.16;52.23
48555;BME280;34336;48.270;16.716;2022-11-02T15:14:26;76177.91;;;18.16;54.15
48555;BME280;34336;48.270;16.716;2022-11-02T15:16:50;76208.72;;;18.16;55.02
48555;BME280;34336;48.270;16.716;2022-11-02T15:24:48;76247.25;;;18.16;55.75